Time;durP1;ratioP1;P1;durP2;ratioP2;P2;SDS_P1;SDS_P2;PMS_P1;PMS_P2;Temp;Humidity;BMP_temperature;BMP_pressure;BME280_temperature;BME280_humidity;BME280_pressure;Samples;Min_cycle;Max_cycle;Signal;HPM_P1;HPM_P2
2022/04/19 00:00:21;;;;;;;2.57;1.60;;;10.60;69.60;;;;;;5057546;28;20404;-48
2022/04/19 00:02:49;;;;;;;3.17;1.60;;;10.60;69.80;;;;;;5065894;28;20230;-50
2022/04/19 00:05:16;;;;;;;2.37;1.30;;;10.70;70.40;;;;;;5067896;28;20201;-46
2022/04/19 00:07:44;;;;;;;3.33;1.43;;;10.70;71.00;;;;;;5066465;28;20201;-43
2022/04/19 00:10:13;;;;;;;2.90;1.20;;;10.70;71.20;;;;;;5066045;28;20218;-45
2022/04/19 00:12:40;;;;;;;2.00;1.20;;;10.70;72.00;;;;;;5061781;28;20193;-46
2022/04/19 00:15:09;;;;;;;3.20;1.10;;;10.60;72.30;;;;;;5065953;28;20205;-48
2022/04/19 00:17:36;;;;;;;2.43;1.00;;;10.60;73.40;;;;;;5063746;28;20233;-47
2022/04/19 00:20:04;;;;;;;1.50;1.03;;;10.60;73.80;;;;;;5068356;28;20279;-48
2022/04/19 00:22:31;;;;;;;2.00;1.00;;;10.50;74.30;;;;;;5060436;28;20353;-42
2022/04/19 00:24:59;;;;;;;1.00;0.90;;;10.50;74.40;;;;;;5068071;28;20218;-44
2022/04/19 00:27:28;;;;;;;2.80;1.10;;;10.50;74.90;;;;;;5068904;28;20728;-39
2022/04/19 00:29:55;;;;;;;1.00;0.90;;;10.40;74.80;;;;;;5069786;28;20204;-39
2022/04/19 00:32:23;;;;;;;3.10;1.10;;;10.40;75.50;;;;;;5057275;28;20193;-39
2022/04/19 00:34:51;;;;;;;2.47;1.23;;;10.40;76.10;;;;;;5067090;28;20262;-39
2022/04/19 00:37:18;;;;;;;0.83;0.80;;;10.30;76.30;;;;;;5058898;28;20232;-38
2022/04/19 00:39:46;;;;;;;1.00;1.00;;;10.30;76.90;;;;;;5064489;28;20653;-40
2022/04/19 00:42:13;;;;;;;1.53;0.93;;;10.30;77.10;;;;;;5057877;28;20204;-40
2022/04/19 00:44:41;;;;;;;1.70;0.80;;;10.30;77.40;;;;;;5066734;28;20239;-39
2022/04/19 00:47:09;;;;;;;1.80;0.80;;;10.30;77.50;;;;;;5071968;28;20305;-39
2022/04/19 00:49:38;;;;;;;2.30;1.00;;;10.30;77.60;;;;;;5068634;28;20205;-39
2022/04/19 00:52:07;;;;;;;1.37;0.90;;;10.30;77.50;;;;;;5058746;28;20209;-41
2022/04/19 00:54:35;;;;;;;3.73;1.23;;;10.40;77.50;;;;;;5070863;28;20280;-40
2022/04/19 00:57:03;;;;;;;2.43;1.20;;;10.40;78.10;;;;;;5059767;28;20229;-39
2022/04/19 00:59:31;;;;;;;1.63;1.03;;;10.40;78.10;;;;;;5069957;28;20212;-41
2022/04/19 01:02:00;;;;;;;3.30;1.10;;;10.40;78.40;;;;;;5072892;28;20884;-39
2022/04/19 01:04:27;;;;;;;1.30;1.07;;;10.40;78.10;;;;;;5066467;28;20223;-40
2022/04/19 01:06:55;;;;;;;2.37;1.17;;;10.40;77.70;;;;;;5068501;28;20193;-40
2022/04/19 01:09:23;;;;;;;1.47;1.17;;;10.40;77.60;;;;;;5063262;28;20296;-40
2022/04/19 01:14:36;;;;;;;1.13;0.80;;;10.40;77.90;;;;;;5071654;28;20201;-38
2022/04/19 01:17:07;;;;;;;6.80;1.30;;;10.40;77.90;;;;;;5070403;28;20232;-39
2022/04/19 01:19:38;;;;;;;2.40;1.47;;;10.30;77.60;;;;;;5054349;28;20309;-39
2022/04/19 01:22:13;;;;;;;4.83;2.13;;;10.40;77.20;;;;;;5053116;28;20219;-39
2022/04/19 01:24:44;;;;;;;6.47;1.80;;;10.30;76.70;;;;;;5063613;28;20260;-39
2022/04/19 01:27:14;;;;;;;3.87;1.63;;;10.40;76.50;;;;;;5070645;28;20216;-39
2022/04/19 01:29:45;;;;;;;6.70;1.83;;;10.40;76.20;;;;;;5065653;28;20717;-41
2022/04/19 01:32:14;;;;;;;13.77;2.23;;;10.40;76.00;;;;;;5062638;28;20249;-39
2022/04/19 01:34:41;;;;;;;5.50;2.03;;;10.40;76.10;;;;;;5071124;28;20202;-38
2022/04/19 01:37:17;;;;;;;16.80;3.07;;;10.40;76.30;;;;;;5058920;28;20206;-39
2022/04/19 01:42:34;;;;;;;17.03;3.33;;;10.40;76.90;;;;;;5053740;28;20541;-41
2022/04/19 01:45:02;;;;;;;23.37;3.20;;;10.40;77.50;;;;;;5070913;28;20197;-41
2022/04/19 01:47:30;;;;;;;20.17;3.27;;;10.40;77.80;;;;;;5070665;28;20199;-39
2022/04/19 01:49:59;;;;;;;18.53;2.97;;;10.40;77.90;;;;;;5060180;28;20587;-39
2022/04/19 01:52:28;;;;;;;19.00;2.77;;;10.40;77.90;;;;;;5069139;28;20197;-39
2022/04/19 01:54:58;;;;;;;21.07;2.60;;;10.30;77.80;;;;;;5067986;28;20217;-40
2022/04/19 01:57:30;;;;;;;22.70;2.60;;;10.40;78.00;;;;;;5068511;28;20219;-41
2022/04/19 01:59:57;;;;;;;8.80;1.77;;;10.30;78.10;;;;;;5067044;28;20276;-40
2022/04/19 02:02:44;;;;;;;25.60;3.50;;;10.30;78.10;;;;;;5066028;28;20211;-39
2022/04/19 02:05:15;;;;;;;23.73;3.90;;;10.30;78.80;;;;;;5086123;28;20300;-40
2022/04/19 02:07:47;;;;;;;33.13;4.00;;;10.30;79.20;;;;;;5084114;28;20303;-39
2022/04/19 02:10:17;;;;;;;14.37;2.93;;;10.30;79.90;;;;;;5067192;28;20592;-39
2022/04/19 02:12:47;;;;;;;11.13;2.40;;;10.20;80.00;;;;;;5061315;28;20700;-41
2022/04/19 02:15:37;;;;;;;3.73;1.90;;;10.30;80.20;;;;;;5050268;28;20228;-43
2022/04/19 02:18:14;;;;;;;4.80;2.10;;;10.30;80.30;;;;;;5063790;28;20270;-41
2022/04/19 02:20:43;;;;;;;5.53;1.50;;;10.30;80.40;;;;;;5053079;28;20198;-40
2022/04/19 02:23:12;;;;;;;5.20;1.73;;;10.40;80.40;;;;;;5064203;28;20293;-40
2022/04/19 02:25:39;;;;;;;5.13;1.60;;;10.40;80.40;;;;;;5061967;28;20270;-40
2022/04/19 02:28:10;;;;;;;12.43;1.80;;;10.40;80.30;;;;;;5064573;28;20200;-39
2022/04/19 02:30:43;;;;;;;1.67;1.20;;;10.50;80.30;;;;;;5058022;28;20220;-40
2022/04/19 02:33:16;;;;;;;5.53;1.40;;;10.50;80.00;;;;;;5062543;28;20674;-39
2022/04/19 02:35:43;;;;;;;1.23;0.97;;;10.50;79.80;;;;;;5059908;28;20533;-39
2022/04/19 02:38:13;;;;;;;7.00;1.07;;;10.50;79.60;;;;;;5063464;28;20295;-39
2022/04/19 02:40:47;;;;;;;1.67;0.90;;;10.50;79.40;;;;;;5091241;28;20606;-39
2022/04/19 02:43:15;;;;;;;3.43;0.70;;;10.50;79.40;;;;;;5056306;28;20273;-40
2022/04/19 02:45:44;;;;;;;3.57;1.13;;;10.50;79.30;;;;;;5069387;28;20638;-40
2022/04/19 02:48:18;;;;;;;2.30;1.20;;;10.50;79.30;;;;;;5068060;28;20631;-42
2022/04/19 02:50:49;;;;;;;1.10;1.00;;;10.60;79.40;;;;;;5067964;28;20209;-39
2022/04/19 02:53:18;;;;;;;2.00;1.00;;;10.50;79.30;;;;;;5071045;28;20236;-40
2022/04/19 02:55:45;;;;;;;1.50;0.90;;;10.50;79.50;;;;;;5068410;28;20680;-39
2022/04/19 02:58:12;;;;;;;0.93;0.63;;;10.50;79.60;;;;;;5070098;28;20624;-39
2022/04/19 03:00:40;;;;;;;1.43;0.90;;;10.50;79.70;;;;;;5067367;28;20204;-38
2022/04/19 03:03:09;;;;;;;1.50;0.87;;;10.50;79.80;;;;;;5065672;28;20299;-39
2022/04/19 03:05:40;;;;;;;1.13;0.90;;;10.50;79.80;;;;;;5066417;28;20296;-39
2022/04/19 03:08:08;;;;;;;2.23;0.70;;;10.50;79.80;;;;;;5056441;28;20227;-39
2022/04/19 03:10:38;;;;;;;1.57;1.00;;;10.50;79.80;;;;;;5065256;28;20206;-39
2022/04/19 03:13:05;;;;;;;1.57;0.83;;;10.50;79.80;;;;;;5067240;28;20188;-39
2022/04/19 03:15:37;;;;;;;1.40;1.00;;;10.50;79.70;;;;;;5064117;28;20201;-41
2022/04/19 03:18:05;;;;;;;0.60;0.60;;;10.50;79.60;;;;;;5067067;28;20244;-41
2022/04/19 03:20:37;;;;;;;0.60;0.60;;;10.50;79.50;;;;;;5066892;28;20202;-41
2022/04/19 03:28:49;;;;;;;1.37;0.73;;;10.50;79.30;;;;;;5067016;28;20326;-40
2022/04/19 03:31:17;;;;;;;1.23;0.90;;;10.60;79.20;;;;;;5068031;28;20611;-41
2022/04/19 03:33:48;;;;;;;0.97;0.90;;;10.70;79.20;;;;;;5067592;28;20217;-39
2022/04/19 03:36:15;;;;;;;2.03;0.90;;;10.70;79.10;;;;;;5069346;28;20197;-40
2022/04/19 03:38:43;;;;;;;0.90;0.90;;;10.60;79.00;;;;;;5068888;28;20672;-39
2022/04/19 03:41:12;;;;;;;0.70;0.70;;;10.70;79.10;;;;;;5069518;28;20214;-43
2022/04/19 03:43:41;;;;;;;2.37;0.80;;;10.60;79.00;;;;;;5069361;28;20210;-42
2022/04/19 03:46:08;;;;;;;1.37;1.10;;;10.70;79.10;;;;;;5069887;28;20211;-40
2022/04/19 03:48:37;;;;;;;1.30;1.00;;;10.60;79.00;;;;;;5066642;28;20202;-41
2022/04/19 03:51:04;;;;;;;1.80;1.20;;;10.70;79.20;;;;;;5068993;28;20204;-46
2022/04/19 03:53:32;;;;;;;2.13;1.40;;;10.70;79.30;;;;;;5068530;28;20200;-49
2022/04/19 03:56:00;;;;;;;1.30;1.10;;;10.70;79.40;;;;;;5068787;28;20603;-47
2022/04/19 03:58:29;;;;;;;0.90;0.90;;;10.70;79.40;;;;;;5065797;28;20238;-41
2022/04/19 04:00:57;;;;;;;0.80;0.80;;;10.70;79.40;;;;;;5065899;28;20215;-44
2022/04/19 04:03:24;;;;;;;3.47;1.07;;;10.70;79.50;;;;;;5078434;28;20218;-45
2022/04/19 04:05:51;;;;;;;1.10;1.00;;;10.70;79.50;;;;;;5078818;28;20670;-50
2022/04/19 04:08:19;;;;;;;1.60;1.13;;;10.70;79.70;;;;;;5064755;28;20217;-39
2022/04/19 04:10:52;;;;;;;0.80;0.80;;;10.70;79.80;;;;;;5056384;28;20223;-40
2022/04/19 04:13:23;;;;;;;0.80;0.80;;;10.70;79.70;;;;;;5063169;28;20692;-40
2022/04/19 04:15:53;;;;;;;1.30;1.10;;;10.70;79.70;;;;;;5061712;28;20213;-40
2022/04/19 04:18:20;;;;;;;1.30;1.20;;;10.70;79.80;;;;;;5089851;28;20328;-40
2022/04/19 04:20:47;;;;;;;1.20;1.10;;;10.70;79.80;;;;;;5064402;28;20202;-38
2022/04/19 04:23:16;;;;;;;1.53;1.10;;;10.70;79.80;;;;;;5068348;28;20224;-38
2022/04/19 04:25:43;;;;;;;2.50;1.53;;;10.70;79.70;;;;;;5065028;28;20743;-39
2022/04/19 04:28:13;;;;;;;1.07;1.07;;;10.70;79.70;;;;;;5082434;28;20215;-39
2022/04/19 04:30:46;;;;;;;2.70;1.40;;;10.80;79.70;;;;;;5060014;28;20697;-39
2022/04/19 04:33:14;;;;;;;2.03;1.47;;;10.70;79.60;;;;;;5060716;28;20706;-41
2022/04/19 04:35:42;;;;;;;1.67;1.30;;;10.70;79.60;;;;;;5065490;28;20548;-41
2022/04/19 04:38:10;;;;;;;1.67;1.47;;;10.70;79.70;;;;;;5062543;28;20205;-44
2022/04/19 04:40:38;;;;;;;1.90;1.30;;;10.70;79.80;;;;;;5068393;28;20697;-42
2022/04/19 04:43:10;;;;;;;1.70;1.13;;;10.70;79.70;;;;;;5067279;28;20210;-45
2022/04/19 04:45:38;;;;;;;1.23;1.13;;;10.70;79.80;;;;;;5067593;28;20208;-41
2022/04/19 04:50:55;;;;;;;2.03;1.40;;;10.70;79.70;;;;;;5066274;28;20204;-46
2022/04/19 04:53:22;;;;;;;2.00;1.23;;;10.80;80.00;;;;;;5067146;28;20310;-47
2022/04/19 04:56:08;;;;;;;2.03;1.30;;;10.80;79.90;;;;;;5068110;28;20205;-44
2022/04/19 04:58:35;;;;;;;1.60;1.50;;;10.80;80.00;;;;;;5066071;28;20294;-45
2022/04/19 05:01:02;;;;;;;1.60;1.50;;;10.80;80.20;;;;;;5068708;28;20199;-41
2022/04/19 05:03:30;;;;;;;2.17;2.00;;;10.70;80.20;;;;;;5065084;28;20209;-39
2022/04/19 05:05:59;;;;;;;3.80;1.80;;;10.70;80.50;;;;;;5065428;28;20282;-45
2022/04/19 05:08:26;;;;;;;1.70;1.60;;;10.60;80.70;;;;;;5065350;28;20192;-44
2022/04/19 05:10:56;;;;;;;1.40;1.30;;;10.60;80.90;;;;;;5067901;28;20308;-45
2022/04/19 05:13:26;;;;;;;1.70;1.40;;;10.60;81.00;;;;;;5064543;28;20215;-47
2022/04/19 05:15:54;;;;;;;1.43;1.07;;;10.60;81.10;;;;;;5067177;28;20201;-48
2022/04/19 05:18:22;;;;;;;1.60;1.33;;;10.70;81.20;;;;;;5066647;28;20244;-45
2022/04/19 05:20:52;;;;;;;1.83;1.40;;;10.60;81.20;;;;;;5070932;28;20266;-43
2022/04/19 05:23:21;;;;;;;1.30;1.20;;;10.60;81.30;;;;;;5064678;28;20258;-43
2022/04/19 05:25:49;;;;;;;1.43;1.33;;;10.70;81.40;;;;;;5070267;28;20375;-46
2022/04/19 05:28:17;;;;;;;1.27;1.17;;;10.70;81.30;;;;;;5070186;28;20604;-46
2022/04/19 05:30:44;;;;;;;2.50;1.67;;;10.80;81.30;;;;;;5070271;28;20233;-47
2022/04/19 05:33:12;;;;;;;1.83;1.40;;;10.80;81.10;;;;;;5069888;28;20205;-49
2022/04/19 05:35:39;;;;;;;1.73;1.20;;;10.90;80.80;;;;;;5071512;28;20654;-49
2022/04/19 05:38:06;;;;;;;1.60;1.50;;;10.90;80.60;;;;;;5071576;28;20213;-47
2022/04/19 05:40:36;;;;;;;2.77;1.27;;;11.00;80.50;;;;;;5070069;28;20295;-49
2022/04/19 05:43:03;;;;;;;2.50;1.60;;;11.00;80.10;;;;;;5069986;28;20204;-45
2022/04/19 05:45:32;;;;;;;2.63;1.40;;;11.00;79.70;;;;;;5058679;28;20245;-48
2022/04/19 05:47:59;;;;;;;1.40;1.20;;;11.00;79.30;;;;;;5068708;28;20235;-43
2022/04/19 05:50:28;;;;;;;1.20;1.10;;;11.10;78.60;;;;;;5058981;28;20619;-39
2022/04/19 05:52:56;;;;;;;2.27;1.00;;;11.10;77.40;;;;;;5067572;28;20193;-39
2022/04/19 05:55:24;;;;;;;1.77;1.30;;;11.10;76.50;;;;;;5057131;28;20610;-41
2022/04/19 05:57:53;;;;;;;3.07;1.10;;;11.20;75.80;;;;;;5063017;28;20203;-47
2022/04/19 06:00:21;;;;;;;1.30;1.20;;;11.30;74.90;;;;;;5093345;28;20258;-40
2022/04/19 06:05:40;;;;;;;1.20;1.10;;;11.30;72.80;;;;;;5059877;28;20200;-47
2022/04/19 06:08:08;;;;;;;2.10;1.20;;;11.40;71.40;;;;;;5068776;28;20296;-48
2022/04/19 06:10:36;;;;;;;1.87;1.10;;;11.40;70.30;;;;;;5069952;28;20575;-49
2022/04/19 06:13:07;;;;;;;2.13;1.00;;;11.40;70.40;;;;;;5079230;28;20289;-49
2022/04/19 06:15:35;;;;;;;1.40;1.10;;;11.40;70.30;;;;;;5066290;28;20746;-44
2022/04/19 06:18:02;;;;;;;1.57;1.20;;;11.50;70.10;;;;;;5066197;28;20235;-42
2022/04/19 06:20:53;;;;;;;2.63;1.50;;;11.40;70.00;;;;;;5060942;28;20219;-49
2022/04/19 06:23:21;;;;;;;1.23;1.10;;;11.40;69.80;;;;;;5066773;28;20261;-44
2022/04/19 06:25:48;;;;;;;1.93;1.07;;;11.40;69.00;;;;;;5062829;28;20333;-43
2022/04/19 06:28:19;;;;;;;1.63;1.20;;;11.40;68.80;;;;;;5084016;28;20202;-46
2022/04/19 06:31:09;;;;;;;3.23;1.30;;;11.50;67.90;;;;;;5068483;28;20209;-49
2022/04/19 06:33:38;;;;;;;2.40;1.50;;;11.40;67.60;;;;;;5061843;28;20251;-46
2022/04/19 06:36:06;;;;;;;2.33;1.10;;;11.50;67.60;;;;;;5058590;28;20208;-43
2022/04/19 06:38:35;;;;;;;2.33;1.73;;;11.40;67.80;;;;;;5069443;28;20253;-48
2022/04/19 06:41:03;;;;;;;5.27;1.70;;;11.50;68.20;;;;;;5069418;28;20212;-43
2022/04/19 06:43:33;;;;;;;2.03;1.20;;;11.50;68.20;;;;;;5068394;28;20213;-47
2022/04/19 06:46:15;;;;;;;1.40;1.30;;;11.50;67.80;;;;;;5068829;28;20229;-42
2022/04/19 06:48:48;;;;;;;2.90;1.17;;;11.50;67.70;;;;;;5055861;28;20291;-43
2022/04/19 06:51:15;;;;;;;1.27;1.20;;;11.60;67.90;;;;;;5068451;28;20738;-46
2022/04/19 06:53:43;;;;;;;1.17;1.07;;;11.60;67.90;;;;;;5069321;28;20667;-45
2022/04/19 06:56:18;;;;;;;3.13;1.40;;;11.60;67.70;;;;;;5067686;28;20623;-41
2022/04/19 06:58:49;;;;;;;1.80;1.70;;;11.60;67.80;;;;;;5068400;28;20205;-43
2022/04/19 07:01:16;;;;;;;2.43;1.60;;;11.70;67.90;;;;;;5067565;28;20202;-44
2022/04/19 07:03:48;;;;;;;2.27;1.50;;;11.70;67.90;;;;;;5065693;28;20298;-42
2022/04/19 07:06:32;;;;;;;2.00;1.30;;;11.80;67.80;;;;;;5060024;28;20614;-45
2022/04/19 07:08:59;;;;;;;1.30;1.20;;;11.80;68.10;;;;;;5055453;28;20208;-41
2022/04/19 07:11:26;;;;;;;3.13;1.30;;;11.80;68.70;;;;;;5068195;28;20197;-44
2022/04/19 07:14:02;;;;;;;2.23;1.07;;;11.80;69.20;;;;;;5067984;28;20685;-45
2022/04/19 07:16:48;;;;;;;1.10;1.00;;;11.70;69.30;;;;;;5069435;28;20362;-44
2022/04/19 07:19:19;;;;;;;6.20;1.33;;;11.70;69.30;;;;;;5066913;28;20662;-40
2022/04/19 07:27:26;;;;;;;2.10;1.20;;;11.80;69.20;;;;;;5066118;28;20535;-40
2022/04/19 07:29:55;;;;;;;2.77;1.40;;;11.90;69.10;;;;;;5065858;28;20318;-45
2022/04/19 07:32:22;;;;;;;4.80;1.60;;;12.00;69.00;;;;;;5067357;28;20279;-45
2022/04/19 07:35:12;;;;;;;3.37;1.50;;;12.00;68.70;;;;;;5062393;28;20279;-42
2022/04/19 07:37:40;;;;;;;1.30;1.20;;;12.10;68.60;;;;;;5068324;28;20229;-41
2022/04/19 07:40:08;;;;;;;2.30;1.27;;;12.10;68.10;;;;;;5064656;28;20568;-40
2022/04/19 07:42:35;;;;;;;1.30;1.20;;;12.10;68.40;;;;;;5066937;28;20197;-40
2022/04/19 07:45:04;;;;;;;3.13;1.20;;;12.10;68.60;;;;;;5067632;28;20236;-40
2022/04/19 07:47:32;;;;;;;1.40;1.30;;;12.10;68.90;;;;;;5067688;28;20195;-40
2022/04/19 07:50:00;;;;;;;2.30;1.57;;;12.20;69.30;;;;;;5066057;28;20211;-42
2022/04/19 07:52:29;;;;;;;1.67;1.17;;;12.20;69.60;;;;;;5063902;28;20208;-40
2022/04/19 07:54:56;;;;;;;1.40;1.30;;;12.20;70.10;;;;;;5068963;28;20559;-40
2022/04/19 07:57:24;;;;;;;1.53;1.30;;;12.40;71.30;;;;;;5067687;28;20966;-44
2022/04/19 07:59:54;;;;;;;2.00;1.03;;;12.40;71.50;;;;;;5055095;28;20350;-39
2022/04/19 08:02:24;;;;;;;2.13;1.13;;;12.60;72.00;;;;;;5057647;28;20576;-45
2022/04/19 08:04:51;;;;;;;4.23;1.37;;;12.70;72.60;;;;;;5063786;28;20310;-45
2022/04/19 08:07:18;;;;;;;1.20;1.00;;;12.80;72.60;;;;;;5065125;28;20207;-42
2022/04/19 08:09:45;;;;;;;1.20;1.10;;;13.00;72.60;;;;;;5066365;28;20668;-45
2022/04/19 08:12:12;;;;;;;0.80;0.80;;;13.10;72.50;;;;;;5058253;28;20193;-48
2022/04/19 08:14:41;;;;;;;1.77;1.17;;;13.10;72.20;;;;;;5064756;28;20296;-49
2022/04/19 08:17:08;;;;;;;2.73;1.50;;;13.20;72.20;;;;;;5065977;28;20246;-41
2022/04/19 08:19:37;;;;;;;3.20;1.30;;;13.20;71.70;;;;;;5090530;28;20273;-42
2022/04/19 08:22:04;;;;;;;4.57;1.43;;;13.20;71.70;;;;;;5063853;28;20662;-47
2022/04/19 08:24:38;;;;;;;1.50;1.40;;;13.20;71.80;;;;;;5055150;28;20696;-40
2022/04/19 08:27:05;;;;;;;3.53;1.40;;;13.20;71.90;;;;;;5068136;28;20206;-39
2022/04/19 08:29:33;;;;;;;1.53;1.43;;;13.10;71.80;;;;;;5060293;28;20197;-47
2022/04/19 08:32:00;;;;;;;3.20;1.80;;;13.10;71.90;;;;;;5063564;28;20284;-43
2022/04/19 08:34:27;;;;;;;2.63;1.40;;;13.10;72.10;;;;;;5055648;28;20207;-45
2022/04/19 08:36:56;;;;;;;1.87;1.50;;;13.00;72.10;;;;;;5063085;28;20258;-43
2022/04/19 08:39:24;;;;;;;1.37;1.27;;;12.80;72.20;;;;;;5061879;28;20557;-48
2022/04/19 08:41:51;;;;;;;1.40;1.30;;;12.80;72.50;;;;;;5059376;28;20300;-43
2022/04/19 08:44:19;;;;;;;2.97;1.77;;;12.80;72.80;;;;;;5080871;28;20213;-44
2022/04/19 08:46:46;;;;;;;3.13;1.67;;;12.80;73.20;;;;;;5065967;28;20557;-48
2022/04/19 08:49:14;;;;;;;1.60;1.50;;;12.90;73.30;;;;;;5067908;28;20695;-46
2022/04/19 08:51:41;;;;;;;2.50;1.30;;;12.90;73.10;;;;;;5063392;28;20193;-47
2022/04/19 08:59:39;;;;;;;1.10;1.00;;;13.20;72.50;;;;;;5059279;28;20219;-49
2022/04/19 09:02:06;;;;;;;4.47;1.40;;;13.20;72.20;;;;;;5070400;28;20220;-49
2022/04/19 09:04:34;;;;;;;2.30;1.47;;;13.30;72.20;;;;;;5067993;28;20715;-41
2022/04/19 09:07:02;;;;;;;2.57;1.47;;;13.30;72.00;;;;;;5061668;28;20193;-42
2022/04/19 09:09:34;;;;;;;1.63;1.27;;;13.30;71.90;;;;;;5068864;28;20607;-46
2022/04/19 09:12:07;;;;;;;3.33;1.40;;;13.20;71.90;;;;;;5069925;28;20193;-42
2022/04/19 09:14:34;;;;;;;4.23;1.80;;;13.20;71.80;;;;;;5068828;28;20193;-42
2022/04/19 09:17:04;;;;;;;3.20;1.40;;;13.10;71.80;;;;;;5070875;28;20236;-42
2022/04/19 09:19:32;;;;;;;1.20;1.20;;;13.10;71.80;;;;;;5068238;28;20202;-45
2022/04/19 09:22:00;;;;;;;1.30;1.20;;;13.00;71.60;;;;;;5067374;28;20220;-42
2022/04/19 09:24:28;;;;;;;1.40;1.07;;;13.00;71.60;;;;;;5064232;28;20202;-41
2022/04/19 09:26:57;;;;;;;2.40;1.23;;;13.00;71.60;;;;;;5065245;28;20189;-42
2022/04/19 09:29:26;;;;;;;1.37;1.27;;;13.10;71.90;;;;;;5064491;28;20194;-42
2022/04/19 09:31:55;;;;;;;2.10;1.40;;;13.10;71.80;;;;;;5069966;28;20193;-44
2022/04/19 09:34:28;;;;;;;1.47;1.37;;;13.20;71.70;;;;;;5063698;28;20209;-42
2022/04/19 09:37:06;;;;;;;1.33;1.23;;;13.30;71.50;;;;;;5071186;28;20632;-42
2022/04/19 09:39:36;;;;;;;4.40;1.20;;;13.40;71.30;;;;;;5065886;28;20296;-46
2022/04/19 09:42:07;;;;;;;2.53;1.20;;;13.50;71.30;;;;;;5065334;28;20200;-46
2022/04/19 09:44:38;;;;;;;2.27;1.33;;;13.60;71.40;;;;;;5061997;28;20233;-44
2022/04/19 09:47:07;;;;;;;2.53;1.10;;;13.60;71.30;;;;;;5070633;28;20190;-43
2022/04/19 09:49:46;;;;;;;0.90;0.90;;;13.70;71.20;;;;;;5068162;28;20665;-46
2022/04/19 09:52:14;;;;;;;1.20;1.10;;;13.80;71.10;;;;;;5063994;28;20551;-43
2022/04/19 09:54:44;;;;;;;3.40;1.53;;;13.90;70.70;;;;;;5062889;28;20190;-44
2022/04/19 09:57:12;;;;;;;1.20;1.10;;;14.00;70.30;;;;;;5061545;28;20198;-41
2022/04/19 09:59:44;;;;;;;3.70;1.40;;;14.00;70.10;;;;;;5065363;28;20267;-48
2022/04/19 10:10:29;;;;;;;1.97;1.20;;;14.30;69.20;;;;;;5060667;28;20232;-41
2022/04/19 10:12:59;;;;;;;2.50;1.10;;;14.30;69.40;;;;;;5066683;28;20198;-43
2022/04/19 10:15:26;;;;;;;2.17;1.30;;;14.30;69.40;;;;;;5063814;28;20222;-50
2022/04/19 10:17:54;;;;;;;5.30;1.33;;;14.30;69.50;;;;;;5068427;28;20234;-46
2022/04/19 10:20:31;;;;;;;1.20;1.10;;;14.30;69.30;;;;;;5069424;28;20201;-49
2022/04/19 10:23:02;;;;;;;2.10;1.40;;;14.30;69.30;;;;;;5060919;28;20253;-47
2022/04/19 10:25:40;;;;;;;1.50;1.40;;;14.30;69.30;;;;;;5057286;28;20286;-47
2022/04/19 10:28:09;;;;;;;3.27;1.20;;;14.30;69.00;;;;;;5061833;28;20561;-44
2022/04/19 10:30:37;;;;;;;2.00;1.40;;;14.30;69.10;;;;;;5064059;28;20210;-42
2022/04/19 10:33:37;;;;;;;1.43;1.27;;;14.30;69.00;;;;;;5084856;28;20206;-40
2022/04/19 10:36:16;;;;;;;2.47;1.50;;;14.30;69.00;;;;;;5067664;28;20199;-45
2022/04/19 10:38:43;;;;;;;1.30;1.20;;;14.40;69.00;;;;;;5066132;28;20200;-49
2022/04/19 10:41:11;;;;;;;2.20;1.03;;;14.40;69.00;;;;;;5060265;28;20203;-40
2022/04/19 10:43:39;;;;;;;2.00;1.10;;;14.50;69.10;;;;;;5068465;28;20193;-49
2022/04/19 10:46:23;;;;;;;3.63;1.60;;;14.60;69.10;;;;;;5070147;28;20214;-49
2022/04/19 10:49:24;;;;;;;4.37;1.30;;;14.60;68.30;;;;;;5057634;28;20276;-43
2022/04/19 10:51:52;;;;;;;1.40;1.30;;;14.50;67.40;;;;;;5070404;28;20201;-41
2022/04/19 10:54:52;;;;;;;1.73;1.63;;;14.50;67.20;;;;;;5070764;28;20210;-43
2022/04/19 11:00:18;;;;;;;0.97;0.97;;;14.60;66.70;;;;;;5068159;28;20695;-40
2022/04/19 11:02:58;;;;;;;2.07;1.17;;;14.70;67.00;;;;;;5061150;28;20213;-40
2022/04/19 11:05:45;;;;;;;1.20;1.10;;;14.90;67.30;;;;;;5069134;28;20687;-43
2022/04/19 11:08:39;;;;;;;2.20;1.50;;;14.90;67.30;;;;;;5062238;28;20196;-40
2022/04/19 11:11:24;;;;;;;6.50;1.40;;;15.00;66.60;;;;;;5033105;28;20310;-42
2022/04/19 11:14:17;;;;;;;1.03;1.00;;;14.90;66.50;;;;;;5063680;28;20205;-40
2022/04/19 11:16:49;;;;;;;1.63;1.53;;;14.90;66.50;;;;;;5069344;28;20738;-44
2022/04/19 11:19:18;;;;;;;1.23;1.10;;;15.00;66.40;;;;;;5069140;28;20461;-41
2022/04/19 11:22:03;;;;;;;3.57;1.27;;;15.00;66.40;;;;;;5069443;28;20253;-44
2022/04/19 11:25:02;;;;;;;2.23;1.47;;;15.10;66.30;;;;;;5059586;28;20207;-40
2022/04/19 11:28:09;;;;;;;3.00;1.50;;;15.20;66.30;;;;;;5059421;28;20611;-40
2022/04/19 11:30:37;;;;;;;3.87;1.43;;;15.40;65.70;;;;;;5062334;28;20217;-42
2022/04/19 11:33:08;;;;;;;1.60;1.50;;;15.50;65.30;;;;;;5067089;28;20196;-40
2022/04/19 11:35:36;;;;;;;1.97;1.27;;;15.50;65.00;;;;;;5065330;28;20528;-40
2022/04/19 11:38:08;;;;;;;1.93;1.73;;;15.50;65.00;;;;;;5065173;28;20653;-42
2022/04/19 11:49:07;;;;;;;3.53;1.70;;;15.40;65.00;;;;;;5062092;28;20200;-49
2022/04/19 11:51:36;;;;;;;1.57;1.40;;;15.30;65.90;;;;;;5061550;28;20192;-48
2022/04/19 11:54:04;;;;;;;3.00;1.67;;;15.30;66.30;;;;;;5068710;28;20200;-46
2022/04/19 11:56:31;;;;;;;4.50;1.60;;;15.20;66.50;;;;;;5065678;28;20290;-41
2022/04/19 11:59:00;;;;;;;1.33;1.20;;;15.10;66.50;;;;;;5068699;28;20665;-44
2022/04/19 12:01:28;;;;;;;1.60;1.37;;;15.10;66.70;;;;;;5069527;28;20679;-41
2022/04/19 12:03:55;;;;;;;5.23;1.57;;;15.10;66.70;;;;;;5066959;28;20505;-47
2022/04/19 12:06:24;;;;;;;1.30;1.20;;;15.10;66.60;;;;;;5065797;28;20557;-48
2022/04/19 12:08:53;;;;;;;2.50;1.47;;;15.10;66.60;;;;;;5069806;28;20199;-41
2022/04/19 12:11:22;;;;;;;2.03;1.20;;;15.20;66.70;;;;;;5069299;28;20205;-43
2022/04/19 12:13:50;;;;;;;1.43;1.33;;;15.20;66.60;;;;;;5065520;28;20197;-45
2022/04/19 12:16:31;;;;;;;2.83;1.70;;;15.30;66.60;;;;;;5064457;28;20203;-40
2022/04/19 12:19:00;;;;;;;1.40;1.30;;;15.30;66.20;;;;;;5068129;28;20267;-46
2022/04/19 12:21:38;;;;;;;2.73;1.27;;;15.40;66.00;;;;;;5068490;28;20211;-45
2022/04/19 12:24:07;;;;;;;1.60;1.50;;;15.40;65.80;;;;;;5065748;28;20199;-45
2022/04/19 12:26:35;;;;;;;2.47;1.87;;;15.50;65.70;;;;;;5067457;28;20220;-46
2022/04/19 12:29:12;;;;;;;1.50;1.40;;;15.40;65.40;;;;;;5062703;28;20216;-46
2022/04/19 12:31:40;;;;;;;1.27;1.23;;;15.40;65.30;;;;;;5068946;28;20199;-49
2022/04/19 12:34:09;;;;;;;3.50;1.60;;;15.40;65.50;;;;;;5058802;28;20193;-44
2022/04/19 12:36:46;;;;;;;3.40;1.40;;;15.40;65.70;;;;;;5054977;28;20199;-47
2022/04/19 12:39:13;;;;;;;1.20;1.20;;;15.40;65.60;;;;;;5063913;28;20313;-49
2022/04/19 12:41:43;;;;;;;1.27;1.17;;;15.30;65.80;;;;;;5068154;28;20336;-44
2022/04/19 12:44:12;;;;;;;1.10;1.10;;;15.30;65.90;;;;;;5068934;28;20204;-49
2022/04/19 12:46:41;;;;;;;4.60;1.50;;;15.40;65.90;;;;;;5067363;28;20236;-44
2022/04/19 12:49:08;;;;;;;3.40;1.83;;;15.40;66.00;;;;;;5068161;28;20200;-49
2022/04/19 12:51:37;;;;;;;4.67;1.87;;;15.30;66.60;;;;;;5068154;28;20559;-49
2022/04/19 12:54:07;;;;;;;4.30;2.10;;;15.20;66.90;;;;;;5068939;28;20287;-49
2022/04/19 12:56:35;;;;;;;4.93;1.73;;;15.10;67.30;;;;;;5067890;28;20191;-43
2022/04/19 12:59:02;;;;;;;1.27;1.20;;;15.00;67.50;;;;;;5068910;28;20200;-46
2022/04/19 13:01:30;;;;;;;4.53;1.80;;;15.00;68.00;;;;;;5068424;28;20194;-43
2022/04/19 13:03:57;;;;;;;1.70;1.33;;;14.90;68.40;;;;;;5068002;28;20690;-46
2022/04/19 13:14:40;;;;;;;3.17;2.00;;;15.00;70.50;;;;;;5064135;28;20200;-43
2022/04/19 13:17:07;;;;;;;3.63;2.17;;;14.90;70.80;;;;;;5067689;28;20723;-44
2022/04/19 13:19:35;;;;;;;3.73;1.93;;;14.80;71.20;;;;;;5067372;28;20210;-47
2022/04/19 13:22:02;;;;;;;2.40;2.00;;;14.80;71.20;;;;;;5067557;28;20202;-47
2022/04/19 13:24:31;;;;;;;6.47;2.23;;;14.70;71.20;;;;;;5063476;28;20726;-45
2022/04/19 13:27:00;;;;;;;4.70;2.27;;;14.70;71.30;;;;;;5066719;28;20211;-45
2022/04/19 13:29:27;;;;;;;3.43;1.80;;;14.70;71.50;;;;;;5067938;28;20207;-46
2022/04/19 13:31:54;;;;;;;3.23;1.40;;;14.70;71.50;;;;;;5067056;28;20262;-48
2022/04/19 13:34:22;;;;;;;5.70;2.20;;;14.60;71.50;;;;;;5066311;28;20209;-42
2022/04/19 13:36:51;;;;;;;1.77;1.57;;;14.70;71.50;;;;;;5067836;28;20245;-43
2022/04/19 13:39:18;;;;;;;2.07;1.70;;;14.60;71.30;;;;;;5067833;28;20208;-43
2022/04/19 13:41:47;;;;;;;3.80;1.50;;;14.70;71.40;;;;;;5068045;28;20227;-46
2022/04/19 13:44:14;;;;;;;2.53;1.77;;;14.80;71.40;;;;;;5062548;28;20231;-43
2022/04/19 13:46:42;;;;;;;2.33;1.60;;;14.80;71.00;;;;;;5071504;28;20227;-45
2022/04/19 13:49:10;;;;;;;4.10;1.93;;;14.90;70.90;;;;;;5069855;28;20209;-48
2022/04/19 13:51:39;;;;;;;2.90;2.10;;;14.90;70.60;;;;;;5069917;28;20205;-46
2022/04/19 13:54:10;;;;;;;3.17;2.23;;;14.90;70.20;;;;;;5062554;28;20208;-49
2022/04/19 13:56:38;;;;;;;3.60;2.40;;;15.00;70.20;;;;;;5067822;28;20203;-46